Terminal Aerodrome Forecast
Issued by NWS Twin Cities, MN

Home | Current Version | Previous Version | Text Only | Print | Product List | Glossary On
Versions: 1 2 3 4 5 6 7 8 9 10 11 12 13 14 15 16 17 18 19
746
FTUS43 KMPX 262320
TAFSTC
TAF
KSTC 262320Z 2700/2724 29012KT P6SM SKC
     FM271400 31015G23KT P6SM SCT030
     FM271600 31014G22KT P6SM OVC040=

USA.gov is the U.S. government's official web portal to all federal, state and local government web resources and services.